createdAt,value
2018-04-17T04:58:51.083Z,90.90
2018-04-17T05:01:22.012Z,90.80
2018-04-17T05:06:26.261Z,90.70
2018-04-17T05:08:55.512Z,90.70
2018-04-17T05:11:26.354Z,90.60
2018-04-17T05:13:55.618Z,90.60
2018-04-17T05:16:23.112Z,90.60
2018-04-17T05:18:51.074Z,90.60
2018-04-17T05:21:19.870Z,90.60
2018-04-17T05:23:48.621Z,90.60
2018-04-17T05:29:19.448Z,90.50
2018-04-17T05:31:47.392Z,90.40
2018-04-17T05:34:22.163Z,90.40
2018-04-17T05:36:59.215Z,90.30
2018-04-17T05:39:36.619Z,90.20
2018-04-17T05:42:04.754Z,90.10
2018-04-17T05:44:32.379Z,90.20
2018-04-17T05:46:59.718Z,90.10
2018-04-17T05:49:46.890Z,90.10
2018-04-17T06:04:33.068Z,89.50
2018-04-17T07:43:29.725Z,76.70
2018-04-17T07:45:56.196Z,76.60
2018-04-17T07:48:34.801Z,76.30
2018-04-17T07:51:01.107Z,77.20
2018-04-17T07:53:27.245Z,76.60
2018-04-17T07:55:54.487Z,75.30
2018-04-17T07:58:20.837Z,73.90
2018-04-17T08:00:47.935Z,74.00
2018-04-17T08:05:47.283Z,72.70
2018-04-17T08:08:15.322Z,72.30
2018-04-17T08:10:44.469Z,72.00
2018-04-17T08:13:11.036Z,71.90
2018-04-17T08:15:37.196Z,71.80
2018-04-17T08:18:03.831Z,71.30
2018-04-17T08:20:29.963Z,71.50
2018-04-17T08:22:56.496Z,71.30
2018-04-17T08:25:22.657Z,71.10
2018-04-17T08:27:48.800Z,69.80
2018-04-17T08:30:15.791Z,70.20
2018-04-17T08:32:42.007Z,69.90
2018-04-17T08:35:08.149Z,69.20
2018-04-17T08:37:34.365Z,68.20
2018-04-17T08:40:00.531Z,67.30
2018-04-17T08:42:26.703Z,67.60
2018-04-17T08:44:53.644Z,67.30
2018-04-17T08:47:20.504Z,66.90
2018-04-17T08:49:46.604Z,66.70
2018-04-17T08:52:12.947Z,66.30
2018-04-17T08:54:39.059Z,66.10
2018-04-17T08:57:05.199Z,65.90
2018-04-17T08:59:31.371Z,65.40
2018-04-17T09:01:57.497Z,66.00
2018-04-17T09:04:23.609Z,64.60
2018-04-17T09:06:50.144Z,63.50
2018-04-17T09:09:16.301Z,63.90
2018-04-17T09:11:42.486Z,62.90
2018-04-17T09:14:09.013Z,61.80
2018-04-17T09:16:35.342Z,60.30
2018-04-17T09:19:01.494Z,60.10
2018-04-17T09:21:27.793Z,60.20
2018-04-17T09:23:54.881Z,60.60
2018-04-17T09:26:21.238Z,59.70
2018-04-17T09:28:47.542Z,60.30
2018-04-17T09:31:13.672Z,58.80
2018-04-17T09:33:40.361Z,58.60
2018-04-17T09:36:07.207Z,57.70
2018-04-17T09:38:34.194Z,58.30
2018-04-17T09:41:01.800Z,57.60
2018-04-17T09:43:29.892Z,57.70
2018-04-17T09:45:58.083Z,56.50
2018-04-17T09:48:28.979Z,57.10
2018-04-17T09:51:00.687Z,55.80
2018-04-17T09:53:30.892Z,55.70
2018-04-17T09:55:58.715Z,55.00
2018-04-17T09:58:26.453Z,55.20
2018-04-17T10:00:59.183Z,53.50
2018-04-17T10:03:36.886Z,53.30
2018-04-17T10:06:03.401Z,53.20
2018-04-17T10:08:31.536Z,52.70
2018-04-17T10:11:02.099Z,52.80
2018-04-17T10:13:30.849Z,51.90
2018-04-17T10:15:58.337Z,52.00
2018-04-17T10:18:25.575Z,52.20
2018-04-17T10:20:57.822Z,52.10
2018-04-17T10:23:25.686Z,50.20
2018-04-17T10:25:52.064Z,51.10
2018-04-17T10:28:19.659Z,50.80
2018-04-17T10:30:47.107Z,50.50
2018-04-17T10:33:18.128Z,49.80
2018-04-17T10:35:46.248Z,48.70
2018-04-17T10:38:12.632Z,49.40
2018-04-17T10:40:41.782Z,50.60
2018-04-17T10:43:08.081Z,50.00
2018-04-17T10:45:34.190Z,49.00
2018-04-17T10:48:02.962Z,48.20
2018-04-17T10:50:30.537Z,49.20
2018-04-17T10:53:00.893Z,49.10
2018-04-17T10:55:27.149Z,49.10
2018-04-17T10:57:53.414Z,48.10
2018-04-17T11:00:19.672Z,46.90
2018-04-17T11:02:45.928Z,46.30
2018-04-17T11:05:12.404Z,45.80
2018-04-17T11:07:38.653Z,46.40
2018-04-17T11:10:05.979Z,44.40
2018-04-17T11:12:32.867Z,44.30
2018-04-17T11:15:01.873Z,45.80
2018-04-17T11:17:28.053Z,46.20
2018-04-17T11:19:55.821Z,47.20
2018-04-17T11:22:22.771Z,46.20
2018-04-17T11:24:49.119Z,45.90
2018-04-17T11:27:15.371Z,46.00
2018-04-17T11:29:44.929Z,44.80
2018-04-17T11:32:11.421Z,45.10
2018-04-17T11:34:38.066Z,44.90
2018-04-17T11:37:04.557Z,44.00
2018-04-17T11:39:30.906Z,45.00
2018-04-17T11:41:58.222Z,45.40
2018-04-17T11:44:24.531Z,45.90
2018-04-17T11:46:51.591Z,44.60
2018-04-17T11:49:17.735Z,44.60
2018-04-17T11:51:43.974Z,46.10
2018-04-17T11:54:10.890Z,46.40
2018-04-17T11:56:37.414Z,45.50
2018-04-17T11:59:03.913Z,44.60
2018-04-17T12:01:31.175Z,44.50
2018-04-17T12:03:57.406Z,44.50
2018-04-17T12:06:23.594Z,44.20
2018-04-17T12:08:50.246Z,43.70
2018-04-17T12:11:17.430Z,42.80
2018-04-17T12:19:51.534Z,42.10
2018-04-17T12:25:26.504Z,41.00
2018-04-17T12:28:23.739Z,42.80
2018-04-17T12:31:25.833Z,41.60
2018-04-17T12:33:57.320Z,41.20
2018-04-17T12:36:37.003Z,41.90
2018-04-17T12:39:03.618Z,40.70
2018-04-17T12:41:34.663Z,40.20
2018-04-17T12:44:14.711Z,40.20
2018-04-17T12:46:42.723Z,39.40
2018-04-17T12:49:12.005Z,38.10
2018-04-17T12:51:38.175Z,38.10
2018-04-17T12:54:06.089Z,40.00
2018-04-17T12:56:36.919Z,40.00
2018-04-17T12:59:13.049Z,38.80
2018-04-17T13:04:13.136Z,39.90
2018-04-17T13:06:39.563Z,38.90
2018-04-17T13:09:06.267Z,38.90
2018-04-17T13:11:41.127Z,38.80
2018-04-17T13:14:10.799Z,40.10
2018-04-17T13:16:38.006Z,40.20
2018-04-17T13:19:07.488Z,38.90
2018-04-17T13:21:35.277Z,38.90
2018-04-17T13:24:04.031Z,39.00
2018-04-17T13:26:42.951Z,39.00
2018-04-17T13:29:22.969Z,38.60
2018-04-17T13:31:51.946Z,39.40
2018-04-17T13:49:33.010Z,37.70
2018-04-17T13:51:59.641Z,37.60
2018-04-17T13:54:34.296Z,38.60
2018-04-17T13:57:02.373Z,38.20
2018-04-17T14:02:30.509Z,36.80
2018-04-17T14:05:12.015Z,36.50
2018-04-17T14:07:42.336Z,36.40
2018-04-17T14:10:14.628Z,36.10
2018-04-17T14:12:42.506Z,36.70
2018-04-17T14:15:15.750Z,37.00
2018-04-17T14:17:42.414Z,37.20
2018-04-17T14:20:08.891Z,37.30
2018-04-17T14:28:42.665Z,36.60
2018-04-17T14:31:18.963Z,36.80
2018-04-17T14:33:50.971Z,36.70
2018-04-17T14:36:20.753Z,37.30
2018-04-17T14:38:47.069Z,37.20
2018-04-17T14:41:13.612Z,36.60
2018-04-17T14:43:41.828Z,35.80
2018-04-17T14:46:09.362Z,35.40
2018-04-17T14:48:35.777Z,35.40
2018-04-17T14:51:04.923Z,35.40
2018-04-17T14:56:10.408Z,35.20
2018-04-17T14:58:41.487Z,34.70
2018-04-17T15:07:32.187Z,35.20
2018-04-17T15:09:58.946Z,34.50
2018-04-17T15:12:28.295Z,35.00
2018-04-17T15:14:54.900Z,35.90
2018-04-17T15:17:23.690Z,36.30
2018-04-17T15:19:57.295Z,36.30
2018-04-17T15:22:30.301Z,36.00
2018-04-17T15:25:02.725Z,35.70
2018-04-17T15:27:30.132Z,35.20
2018-04-17T15:32:33.669Z,35.30
2018-04-17T15:35:02.070Z,35.90
2018-04-17T15:37:43.415Z,35.50
2018-04-17T15:40:13.599Z,34.70
2018-04-17T15:42:43.869Z,33.90
2018-04-17T15:50:35.593Z,27.90
2018-04-17T15:53:03.797Z,26.90
2018-04-17T15:55:41.392Z,26.90
2018-04-17T16:01:25.605Z,28.60
2018-04-17T17:22:37.927Z,34.10
2018-04-17T17:25:05.194Z,34.20
2018-04-17T17:33:41.745Z,34.50
2018-04-17T17:36:10.235Z,34.00
2018-04-17T17:41:34.627Z,34.20
2018-04-17T17:44:11.389Z,36.50
2018-04-17T17:58:50.359Z,38.90
2018-04-17T18:10:48.750Z,41.20
2018-04-17T18:13:22.076Z,42.40
2018-04-17T19:01:57.979Z,55.50
2018-04-17T19:04:24.273Z,56.20
2018-04-17T19:06:51.852Z,56.70
2018-04-17T19:09:18.352Z,57.30
2018-04-17T19:11:44.801Z,57.90
2018-04-17T19:14:11.456Z,58.00
2018-04-17T19:16:37.832Z,59.20
2018-04-17T19:19:08.115Z,59.40
2018-04-17T19:21:34.508Z,59.30
2018-04-17T19:24:02.620Z,59.60
2018-04-17T19:26:29.047Z,59.70
2018-04-17T19:28:55.515Z,60.50
2018-04-17T19:31:22.034Z,60.00
2018-04-17T19:33:48.461Z,60.80
2018-04-17T19:36:19.396Z,61.50
2018-04-17T19:38:49.471Z,62.80
2018-04-17T19:41:18.532Z,63.70
2018-04-17T19:43:48.852Z,63.60
2018-04-17T19:46:18.329Z,65.00
2018-04-17T19:48:48.828Z,65.80
2018-04-17T19:51:19.191Z,65.70
2018-04-17T19:53:49.051Z,65.80
2018-04-17T19:56:19.391Z,65.80
2018-04-17T19:58:50.050Z,66.50
2018-04-17T20:01:21.235Z,67.30
2018-04-17T20:03:51.446Z,66.70
2018-04-17T20:06:18.277Z,67.00
2018-04-17T20:08:47.112Z,67.70
2018-04-17T20:11:16.186Z,68.80
2018-04-17T20:53:33.420Z,71.20
2018-04-17T20:56:07.875Z,71.10
2018-04-17T20:58:34.417Z,71.40
2018-04-17T21:01:22.967Z,72.20
